createdAt,value
2023-03-18T00:00:29.499Z,12.65
2023-03-18T00:02:57.875Z,13.18
2023-03-18T00:05:26.232Z,12.95
2023-03-18T00:07:53.738Z,14.07
2023-03-18T00:10:21.139Z,14.13
2023-03-18T00:12:48.263Z,12.35
2023-03-18T00:15:16.284Z,15.82
2023-03-18T00:17:44.109Z,15.75
2023-03-18T00:20:13.091Z,13.00
2023-03-18T00:22:41.328Z,17.60
2023-03-18T00:25:11.030Z,34.60
2023-03-18T00:27:38.766Z,20.65
2023-03-18T00:30:07.300Z,15.15
2023-03-18T00:32:34.821Z,12.85
2023-03-18T00:35:03.962Z,18.85
2023-03-18T00:37:31.830Z,17.85
2023-03-18T00:40:06.554Z,14.90
2023-03-18T00:42:40.122Z,15.38
2023-03-18T00:45:10.589Z,16.83
2023-03-18T00:47:38.579Z,17.48
2023-03-18T00:50:08.366Z,14.95
2023-03-18T00:52:36.618Z,13.48
2023-03-18T00:55:04.613Z,15.73
2023-03-18T00:57:31.801Z,16.00
2023-03-18T00:59:59.646Z,14.27
2023-03-18T01:02:28.982Z,16.27
2023-03-18T01:04:57.961Z,13.00
2023-03-18T01:07:25.871Z,13.98
2023-03-18T01:09:52.970Z,13.38
2023-03-18T01:12:20.318Z,12.77
2023-03-18T01:14:48.162Z,13.70
2023-03-18T01:17:15.588Z,12.13
2023-03-18T01:19:43.506Z,12.35
2023-03-18T01:22:10.966Z,11.07
2023-03-18T01:24:39.443Z,11.27
2023-03-18T01:27:07.666Z,11.10
2023-03-18T01:29:35.616Z,11.75
2023-03-18T01:32:03.296Z,10.18
2023-03-18T01:34:30.913Z,10.55
2023-03-18T01:36:58.786Z,10.27
2023-03-18T01:39:26.358Z,11.15
2023-03-18T01:41:53.462Z,10.98
2023-03-18T01:44:22.891Z,9.20
2023-03-18T01:46:51.782Z,12.48
2023-03-18T01:49:24.187Z,13.07
2023-03-18T01:51:58.781Z,13.95
2023-03-18T01:54:27.497Z,11.82
2023-03-18T01:56:55.193Z,18.48
2023-03-18T01:59:24.391Z,18.80
2023-03-18T02:02:12.506Z,16.92
2023-03-18T02:04:43.308Z,25.77
2023-03-18T02:07:23.228Z,21.17
2023-03-18T02:09:52.523Z,16.80
2023-03-18T02:12:24.652Z,13.07
2023-03-18T02:14:53.674Z,13.30
2023-03-18T02:17:27.158Z,12.32
2023-03-18T02:20:10.497Z,11.02
2023-03-18T02:22:44.904Z,10.93
2023-03-18T02:25:32.048Z,11.07
2023-03-18T02:28:01.840Z,11.43
2023-03-18T02:30:35.960Z,9.07
2023-03-18T02:33:04.146Z,8.85
2023-03-18T02:35:32.269Z,10.02
2023-03-18T02:37:59.942Z,9.95
2023-03-18T02:40:29.803Z,10.18
2023-03-18T02:43:44.030Z,12.88
2023-03-18T02:46:19.765Z,12.23
2023-03-18T02:48:49.010Z,9.23
2023-03-18T02:51:17.208Z,9.93
2023-03-18T02:53:45.001Z,8.23
2023-03-18T02:56:12.811Z,9.27
2023-03-18T02:58:41.991Z,8.30
2023-03-18T03:01:10.022Z,8.07
2023-03-18T03:03:37.976Z,7.80
2023-03-18T03:06:06.519Z,7.72
2023-03-18T03:08:34.041Z,8.30
2023-03-18T03:11:01.725Z,8.93
2023-03-18T03:13:29.434Z,8.23
2023-03-18T03:15:57.277Z,7.50
2023-03-18T03:18:25.462Z,8.13
2023-03-18T03:20:53.410Z,8.00
2023-03-18T03:23:21.132Z,7.03
2023-03-18T03:25:49.397Z,8.30
2023-03-18T03:28:17.097Z,6.60
2023-03-18T03:30:45.403Z,7.90
2023-03-18T03:33:13.548Z,7.60
2023-03-18T03:35:41.733Z,7.05
2023-03-18T03:38:09.450Z,7.30
2023-03-18T03:40:37.278Z,8.18
2023-03-18T03:43:05.606Z,8.10
2023-03-18T03:45:33.671Z,8.23
2023-03-18T03:48:01.518Z,7.85
2023-03-18T03:50:29.243Z,8.27
2023-03-18T03:52:56.532Z,7.55
2023-03-18T03:55:24.696Z,10.13
2023-03-18T03:57:52.177Z,10.43
2023-03-18T04:00:21.532Z,9.35
2023-03-18T04:02:50.852Z,9.60
2023-03-18T04:05:20.752Z,10.10
2023-03-18T04:07:48.338Z,22.85
2023-03-18T04:10:18.221Z,15.82
2023-03-18T04:12:46.368Z,12.95
2023-03-18T04:15:15.543Z,11.43
2023-03-18T04:17:43.785Z,10.85
2023-03-18T04:20:12.438Z,13.82
2023-03-18T04:22:39.779Z,11.05
2023-03-18T04:25:11.104Z,9.98
2023-03-18T04:27:39.950Z,9.23
2023-03-18T04:30:09.300Z,8.93
2023-03-18T04:32:37.016Z,9.07
2023-03-18T04:35:04.681Z,9.65
2023-03-18T04:37:37.050Z,8.93
2023-03-18T04:40:06.363Z,7.70
2023-03-18T04:42:33.995Z,9.07
2023-03-18T04:45:01.996Z,15.80
2023-03-18T04:47:29.550Z,15.00
2023-03-18T04:49:57.151Z,10.48
2023-03-18T04:52:24.546Z,10.20
2023-03-18T04:54:51.882Z,12.10
2023-03-18T04:57:19.708Z,16.48
2023-03-18T04:59:47.875Z,14.32
2023-03-18T05:02:15.619Z,13.82
2023-03-18T05:04:43.927Z,12.57
2023-03-18T05:07:15.859Z,11.77
2023-03-18T05:09:44.454Z,11.73
2023-03-18T05:12:14.908Z,14.87
2023-03-18T05:14:43.206Z,13.32
2023-03-18T05:17:15.777Z,12.25
2023-03-18T05:19:45.016Z,11.70
2023-03-18T05:22:13.661Z,10.52
2023-03-18T05:24:43.181Z,15.23
2023-03-18T05:27:10.925Z,12.65
2023-03-18T05:29:40.363Z,13.13
2023-03-18T05:32:09.669Z,12.95
2023-03-18T05:34:38.953Z,10.23
2023-03-18T05:37:08.603Z,11.77
2023-03-18T05:39:37.077Z,11.57
2023-03-18T05:42:06.454Z,11.82
2023-03-18T05:44:35.159Z,11.60
2023-03-18T05:47:02.794Z,11.05
2023-03-18T05:49:31.182Z,12.43
2023-03-18T05:51:59.392Z,18.00
2023-03-18T05:54:27.111Z,15.63
2023-03-18T05:56:54.800Z,14.82
2023-03-18T05:59:24.051Z,13.10
2023-03-18T06:01:51.662Z,11.93
2023-03-18T06:04:19.793Z,12.73
2023-03-18T06:06:48.294Z,10.65
2023-03-18T06:09:16.597Z,11.85
2023-03-18T06:11:45.561Z,9.73
2023-03-18T06:14:13.090Z,9.60
2023-03-18T06:16:41.762Z,10.75
2023-03-18T06:19:10.918Z,8.05
2023-03-18T06:21:41.534Z,7.70
2023-03-18T06:24:09.694Z,8.38
2023-03-18T06:26:38.200Z,9.15
2023-03-18T06:29:05.519Z,8.00
2023-03-18T06:31:33.898Z,8.30
2023-03-18T06:34:01.726Z,6.93
2023-03-18T06:36:34.445Z,7.15
2023-03-18T06:39:02.428Z,7.07
2023-03-18T06:41:30.629Z,7.65
2023-03-18T06:43:58.539Z,9.88
2023-03-18T06:46:29.522Z,6.78
2023-03-18T06:48:57.041Z,7.75
2023-03-18T06:51:24.735Z,7.05
2023-03-18T06:53:52.159Z,7.12
2023-03-18T06:56:19.448Z,9.68
2023-03-18T06:58:47.325Z,7.07
2023-03-18T07:01:14.971Z,6.72
2023-03-18T07:03:42.599Z,7.68
2023-03-18T07:06:10.367Z,8.02
2023-03-18T07:08:38.879Z,7.60
2023-03-18T07:11:07.257Z,9.60
2023-03-18T07:13:34.828Z,7.07
2023-03-18T07:16:03.836Z,8.20
2023-03-18T07:18:31.439Z,6.93
2023-03-18T07:20:58.732Z,6.87
2023-03-18T07:23:27.173Z,8.25
2023-03-18T07:25:57.495Z,6.82
2023-03-18T07:28:24.794Z,7.25
2023-03-18T07:30:54.189Z,7.03
2023-03-18T07:33:21.554Z,7.15
2023-03-18T07:35:48.784Z,7.20
2023-03-18T07:38:18.190Z,8.13
2023-03-18T07:40:45.366Z,7.12
2023-03-18T07:43:12.491Z,7.00
2023-03-18T07:45:39.955Z,7.40
2023-03-18T07:48:07.644Z,5.93
2023-03-18T07:50:35.201Z,6.97
2023-03-18T07:53:03.483Z,7.12
2023-03-18T07:55:30.834Z,8.23
2023-03-18T07:57:58.558Z,7.72
2023-03-18T08:00:26.092Z,7.28
2023-03-18T08:02:53.490Z,8.35
2023-03-18T08:05:22.075Z,7.28
2023-03-18T08:07:49.311Z,6.40
2023-03-18T08:10:17.353Z,7.25
2023-03-18T08:12:52.481Z,5.80
2023-03-18T08:15:21.965Z,6.05
2023-03-18T08:17:50.627Z,5.87
2023-03-18T08:20:18.174Z,5.93
2023-03-18T08:22:46.083Z,7.72
2023-03-18T08:25:13.542Z,6.10
2023-03-18T08:27:40.888Z,6.90
2023-03-18T08:30:09.664Z,6.82
2023-03-18T08:32:37.499Z,6.00
2023-03-18T08:35:05.239Z,5.00
2023-03-18T08:37:32.971Z,5.82
2023-03-18T08:40:00.282Z,5.15
2023-03-18T08:42:27.902Z,4.85
2023-03-18T08:44:55.505Z,5.47
2023-03-18T08:47:25.046Z,5.32
2023-03-18T08:49:52.292Z,5.70
2023-03-18T08:52:19.900Z,5.40
2023-03-18T08:54:47.897Z,4.78
2023-03-18T08:57:15.985Z,5.43
2023-03-18T08:59:43.473Z,4.18
2023-03-18T09:02:18.372Z,4.72
2023-03-18T09:04:46.026Z,4.12
2023-03-18T09:07:13.536Z,5.50
2023-03-18T09:09:43.913Z,8.27
2023-03-18T09:12:12.679Z,5.50
2023-03-18T09:14:44.010Z,4.15
2023-03-18T09:17:11.697Z,5.50
2023-03-18T09:19:38.936Z,4.70
2023-03-18T09:22:06.166Z,5.35
2023-03-18T09:24:34.975Z,4.60
2023-03-18T09:27:02.260Z,4.50
2023-03-18T09:29:29.616Z,6.87
2023-03-18T09:32:00.649Z,5.25
2023-03-18T09:34:27.816Z,4.90
2023-03-18T09:36:54.915Z,4.95
2023-03-18T09:39:22.481Z,4.50
2023-03-18T09:42:29.320Z,5.10
2023-03-18T09:45:02.663Z,21.25
2023-03-18T09:47:46.435Z,4.10
2023-03-18T09:50:35.340Z,4.25
2023-03-18T09:53:40.271Z,4.22
2023-03-18T09:56:13.542Z,3.80
2023-03-18T09:58:50.148Z,3.87
2023-03-18T10:01:18.556Z,3.35
2023-03-18T10:04:15.062Z,3.67
2023-03-18T10:06:44.256Z,3.28
2023-03-18T10:09:39.589Z,4.62
2023-03-18T10:12:12.358Z,15.23
2023-03-18T10:14:44.277Z,7.12
2023-03-18T10:17:35.569Z,3.87
2023-03-18T10:20:06.231Z,3.60
2023-03-18T10:22:50.071Z,3.00
2023-03-18T10:25:36.807Z,3.47
2023-03-18T10:28:41.377Z,8.02
2023-03-18T10:31:21.132Z,3.42
2023-03-18T10:33:55.647Z,3.40
2023-03-18T10:36:25.966Z,4.00
2023-03-18T10:38:54.887Z,3.70
2023-03-18T10:41:28.957Z,3.85
2023-03-18T10:43:57.267Z,3.62
2023-03-18T10:46:27.064Z,3.65
2023-03-18T10:49:19.147Z,3.33
2023-03-18T10:51:51.067Z,3.70
2023-03-18T10:54:28.719Z,3.22
2023-03-18T10:56:56.628Z,3.83
2023-03-18T10:59:25.807Z,3.17
2023-03-18T11:02:07.551Z,3.45
2023-03-18T11:05:17.061Z,4.32
2023-03-18T11:08:06.491Z,3.35
2023-03-18T11:10:37.080Z,5.10
2023-03-18T11:13:04.331Z,3.80
2023-03-18T11:15:45.194Z,3.03
2023-03-18T11:18:19.666Z,4.87
2023-03-18T11:20:49.300Z,5.32
2023-03-18T11:23:20.577Z,4.82
2023-03-18T11:25:48.980Z,4.03
2023-03-18T11:28:23.356Z,4.05
2023-03-18T11:30:55.213Z,4.28
2023-03-18T11:33:30.524Z,4.47
2023-03-18T11:35:58.881Z,3.67
2023-03-18T11:38:33.368Z,3.95
2023-03-18T11:44:02.061Z,4.03
2023-03-18T11:51:56.541Z,3.90
2023-03-18T11:54:29.882Z,4.00
2023-03-18T11:57:05.793Z,4.70
2023-03-18T12:00:05.127Z,3.87
2023-03-18T12:02:59.982Z,5.18
2023-03-18T12:05:52.430Z,4.47
2023-03-18T12:08:41.582Z,5.32
2023-03-18T12:11:13.848Z,4.37
2023-03-18T12:14:06.359Z,3.85
2023-03-18T12:16:52.378Z,3.72
2023-03-18T12:19:32.070Z,4.05
2023-03-18T12:22:26.705Z,5.20
2023-03-18T12:25:30.511Z,4.07
2023-03-18T12:28:11.209Z,3.60
2023-03-18T12:30:47.874Z,4.60
2023-03-18T12:33:35.797Z,3.85
2023-03-18T12:36:12.496Z,4.12
2023-03-18T12:39:05.777Z,3.60
2023-03-18T12:41:58.462Z,3.53
2023-03-18T12:44:57.761Z,4.30
2023-03-18T12:47:30.344Z,4.68
2023-03-18T12:50:00.338Z,4.15
2023-03-18T12:52:27.524Z,5.00
2023-03-18T12:55:05.798Z,3.83
2023-03-18T12:57:36.186Z,3.92
2023-03-18T13:00:10.532Z,3.67
2023-03-18T13:02:54.351Z,5.00
2023-03-18T13:05:31.696Z,5.53
2023-03-18T13:08:21.181Z,6.85
2023-03-18T13:10:54.918Z,5.90
2023-03-18T13:15:55.196Z,4.57
2023-03-18T13:18:27.287Z,3.67
2023-03-18T13:20:58.652Z,3.30
2023-03-18T13:23:44.352Z,4.45
2023-03-18T13:26:17.225Z,4.20
2023-03-18T13:29:06.064Z,4.03
2023-03-18T13:31:42.691Z,3.70
2023-03-18T13:34:32.582Z,4.32
2023-03-18T13:37:12.402Z,4.30
2023-03-18T13:40:22.886Z,4.20
2023-03-18T13:42:51.368Z,3.62
2023-03-18T13:45:25.621Z,3.87
2023-03-18T13:47:59.117Z,4.43
2023-03-18T13:50:34.673Z,5.15
2023-03-18T13:53:03.763Z,3.87
2023-03-18T13:55:33.043Z,4.35
2023-03-18T13:58:19.200Z,4.25
2023-03-18T14:00:55.575Z,3.50
2023-03-18T14:03:51.686Z,3.70
2023-03-18T14:06:23.757Z,4.45
2023-03-18T14:08:52.703Z,3.35
2023-03-18T14:11:20.320Z,3.70
2023-03-18T14:13:47.458Z,4.37
2023-03-18T14:16:20.869Z,3.60
2023-03-18T14:19:10.157Z,2.93
2023-03-18T14:21:48.628Z,3.10
2023-03-18T14:24:22.237Z,2.78
2023-03-18T14:26:58.814Z,3.50
2023-03-18T14:29:37.511Z,4.30
2023-03-18T14:32:08.520Z,4.47
2023-03-18T14:34:54.750Z,6.32
2023-03-18T14:37:31.590Z,3.15
2023-03-18T14:40:13.979Z,3.10
2023-03-18T14:43:00.964Z,3.37
2023-03-18T14:45:31.380Z,3.17
2023-03-18T14:48:01.608Z,3.87
2023-03-18T14:50:29.522Z,3.10
2023-03-18T14:53:12.565Z,2.85
2023-03-18T14:55:40.452Z,2.97
2023-03-18T14:58:22.327Z,2.95
2023-03-18T15:01:12.354Z,3.65
2023-03-18T15:03:43.577Z,3.10
2023-03-18T15:06:26.900Z,3.08
2023-03-18T15:09:04.730Z,3.10
2023-03-18T15:11:39.581Z,4.35
2023-03-18T15:14:31.027Z,3.83
2023-03-18T15:17:04.718Z,7.82
2023-03-18T15:19:32.643Z,3.78
2023-03-18T15:22:05.795Z,4.68
2023-03-18T15:24:33.485Z,3.65
2023-03-18T15:27:10.881Z,2.60
2023-03-18T15:29:51.022Z,3.12
2023-03-18T15:32:26.483Z,3.85
2023-03-18T15:34:58.128Z,3.97
2023-03-18T15:37:42.752Z,3.58
2023-03-18T15:45:19.259Z,3.80
2023-03-18T15:47:47.480Z,4.32
2023-03-18T15:50:26.293Z,3.87
2023-03-18T15:53:19.766Z,12.57
2023-03-18T15:55:52.931Z,4.65
2023-03-18T15:58:29.325Z,3.30
2023-03-18T16:00:57.267Z,4.57
2023-03-18T16:03:27.162Z,4.43
2023-03-18T16:05:55.225Z,5.90
2023-03-18T16:08:22.926Z,4.32
2023-03-18T16:10:53.137Z,3.60
2023-03-18T16:13:33.322Z,8.10
2023-03-18T16:16:01.108Z,3.90
2023-03-18T16:18:28.282Z,4.47
2023-03-18T16:20:57.299Z,4.37
2023-03-18T16:23:24.732Z,5.90
2023-03-18T16:25:53.221Z,6.28
2023-03-18T16:28:23.126Z,8.43
2023-03-18T16:30:53.204Z,6.97
2023-03-18T16:33:21.052Z,6.53
2023-03-18T16:35:55.300Z,6.05
2023-03-18T16:38:23.008Z,6.12
2023-03-18T16:40:50.662Z,9.30
2023-03-18T16:43:19.796Z,14.65
2023-03-18T16:45:48.481Z,17.67
2023-03-18T16:48:18.833Z,19.80
2023-03-18T16:50:48.412Z,20.00
2023-03-18T16:53:18.329Z,16.73
2023-03-18T16:55:47.426Z,13.43
2023-03-18T16:58:22.488Z,10.23
2023-03-18T17:00:51.169Z,12.27
2023-03-18T17:03:19.178Z,12.52
2023-03-18T17:05:50.496Z,14.70
2023-03-18T17:08:19.516Z,39.15
2023-03-18T17:10:49.348Z,31.75
2023-03-18T17:13:26.004Z,25.70
2023-03-18T17:15:53.586Z,23.00
2023-03-18T17:18:22.824Z,32.10
2023-03-18T17:20:50.637Z,33.53
2023-03-18T17:23:20.526Z,33.63
2023-03-18T17:25:50.967Z,29.15
2023-03-18T17:28:23.725Z,36.38
2023-03-18T17:30:51.356Z,36.25
2023-03-18T17:33:31.102Z,33.13
2023-03-18T17:36:00.349Z,64.95
2023-03-18T17:38:28.785Z,26.35
2023-03-18T17:40:56.691Z,23.67
2023-03-18T17:43:36.929Z,20.62
2023-03-18T17:46:06.172Z,19.75
2023-03-18T17:48:35.223Z,22.05
2023-03-18T17:51:10.773Z,45.58
2023-03-18T17:53:49.468Z,32.00
2023-03-18T17:56:18.377Z,42.80
2023-03-18T17:58:47.753Z,28.23
2023-03-18T18:01:16.426Z,39.72
2023-03-18T18:03:44.217Z,25.80
2023-03-18T18:06:22.340Z,18.80
2023-03-18T18:08:50.123Z,17.70
2023-03-18T18:11:32.232Z,34.13
2023-03-18T18:14:13.033Z,19.77
2023-03-18T18:16:40.662Z,16.70
2023-03-18T18:19:10.366Z,17.45
2023-03-18T18:21:37.700Z,22.87
2023-03-18T18:24:14.575Z,23.95
2023-03-18T18:26:41.959Z,19.55
2023-03-18T18:29:14.458Z,17.15
2023-03-18T18:31:42.042Z,14.85
2023-03-18T18:34:09.401Z,11.45
2023-03-18T18:36:36.892Z,12.63
2023-03-18T18:39:05.429Z,27.58
2023-03-18T18:41:33.459Z,22.23
2023-03-18T18:44:00.622Z,17.23
2023-03-18T18:46:28.900Z,20.95
2023-03-18T18:48:56.615Z,12.77
2023-03-18T18:51:24.196Z,20.05
2023-03-18T18:53:53.695Z,16.25
2023-03-18T18:56:34.248Z,17.17
2023-03-18T18:59:05.192Z,14.25
2023-03-18T19:01:32.328Z,17.05
2023-03-18T19:03:59.429Z,11.82
2023-03-18T19:06:29.257Z,12.30
2023-03-18T19:08:58.558Z,15.50
2023-03-18T19:11:26.660Z,22.48
2023-03-18T19:13:55.352Z,19.95
2023-03-18T19:16:36.248Z,17.98
2023-03-18T19:19:03.681Z,22.13
2023-03-18T19:21:31.230Z,20.95
2023-03-18T19:23:58.662Z,34.53
2023-03-18T19:26:26.085Z,29.10
2023-03-18T19:28:59.006Z,35.17
2023-03-18T19:31:30.650Z,36.67
2023-03-18T19:33:59.734Z,36.25
2023-03-18T19:36:32.658Z,24.90
2023-03-18T19:39:01.475Z,32.40
2023-03-18T19:41:29.491Z,27.20
2023-03-18T19:44:04.089Z,23.77
2023-03-18T19:46:37.097Z,23.98
2023-03-18T19:49:33.221Z,30.05
2023-03-18T19:52:16.954Z,24.30
2023-03-18T19:54:44.476Z,34.05
2023-03-18T19:57:32.518Z,31.77
2023-03-18T20:00:01.095Z,37.33
2023-03-18T20:02:33.917Z,24.52
2023-03-18T20:05:03.768Z,21.50
2023-03-18T20:07:35.338Z,20.30
2023-03-18T20:10:02.791Z,15.18
2023-03-18T20:12:42.973Z,14.32
2023-03-18T20:15:22.415Z,15.77
2023-03-18T20:17:51.000Z,19.48
2023-03-18T20:20:19.611Z,21.62
2023-03-18T20:22:52.384Z,19.08
2023-03-18T20:25:24.381Z,24.37
2023-03-18T20:27:53.575Z,29.98
2023-03-18T20:30:27.780Z,28.12
2023-03-18T20:32:55.568Z,33.17
2023-03-18T20:35:28.514Z,28.52
2023-03-18T20:37:57.463Z,31.83
2023-03-18T20:40:29.273Z,22.23
2023-03-18T20:42:56.881Z,23.58
2023-03-18T20:45:24.943Z,18.35
2023-03-18T20:47:52.504Z,16.83
2023-03-18T20:50:21.966Z,14.63
2023-03-18T20:52:49.391Z,13.13
2023-03-18T20:55:31.789Z,12.23
2023-03-18T20:58:00.587Z,11.23
2023-03-18T21:00:31.156Z,13.00
2023-03-18T21:03:02.368Z,11.63
2023-03-18T21:05:29.844Z,14.50
2023-03-18T21:07:57.065Z,15.88
2023-03-18T21:10:26.218Z,18.45
2023-03-18T21:12:54.060Z,16.15
2023-03-18T21:15:24.191Z,11.75
2023-03-18T21:17:51.560Z,26.37
2023-03-18T21:20:22.954Z,15.07
2023-03-18T21:22:50.526Z,12.98
2023-03-18T21:25:22.994Z,13.32
2023-03-18T21:27:50.906Z,13.05
2023-03-18T21:30:21.510Z,13.13
2023-03-18T21:32:50.567Z,12.18
2023-03-18T21:35:26.125Z,13.07
2023-03-18T21:37:53.627Z,11.95
2023-03-18T21:40:23.591Z,11.38
2023-03-18T21:42:51.481Z,9.00
2023-03-18T21:45:21.334Z,10.05
2023-03-18T21:47:48.836Z,8.70
2023-03-18T21:50:26.256Z,9.23
2023-03-18T21:52:54.538Z,10.00
2023-03-18T21:55:22.553Z,11.23
2023-03-18T21:57:49.776Z,11.30
2023-03-18T22:00:20.097Z,10.80
2023-03-18T22:02:48.051Z,15.25
2023-03-18T22:05:20.933Z,13.23
2023-03-18T22:07:50.302Z,20.65
2023-03-18T22:10:22.917Z,23.95
2023-03-18T22:12:50.767Z,14.77
2023-03-18T22:15:23.716Z,9.93
2023-03-18T22:17:51.820Z,10.13
2023-03-18T22:20:19.059Z,9.15
2023-03-18T22:22:47.392Z,12.70
2023-03-18T22:25:24.477Z,10.85
2023-03-18T22:27:53.840Z,17.42
2023-03-18T22:30:21.601Z,10.05
2023-03-18T22:32:48.853Z,8.73
2023-03-18T22:35:21.394Z,11.18
2023-03-18T22:37:49.748Z,8.88
2023-03-18T22:40:22.281Z,8.23
2023-03-18T22:42:52.195Z,8.80
2023-03-18T22:45:22.842Z,12.80
2023-03-18T22:47:51.836Z,14.07
2023-03-18T22:50:19.674Z,10.73
2023-03-18T22:52:48.657Z,34.80
2023-03-18T22:55:22.472Z,16.92
2023-03-18T22:57:50.711Z,15.20
2023-03-18T23:00:35.570Z,11.30
2023-03-18T23:03:03.174Z,12.50
2023-03-18T23:05:30.741Z,9.57
2023-03-18T23:07:58.348Z,10.07
2023-03-18T23:10:25.625Z,11.20
2023-03-18T23:12:53.249Z,13.40
2023-03-18T23:15:22.636Z,34.53
2023-03-18T23:17:50.055Z,37.78
2023-03-18T23:20:18.403Z,25.65
2023-03-18T23:22:45.831Z,14.73
2023-03-18T23:25:17.740Z,14.10
2023-03-18T23:27:45.468Z,22.42
2023-03-18T23:30:13.667Z,44.55
2023-03-18T23:32:41.414Z,28.87
2023-03-18T23:35:09.708Z,25.58
2023-03-18T23:37:36.914Z,16.30
2023-03-18T23:40:06.122Z,26.37
2023-03-18T23:42:33.577Z,15.57
2023-03-18T23:45:00.877Z,11.52
2023-03-18T23:47:28.134Z,12.73
2023-03-18T23:49:55.684Z,11.88
2023-03-18T23:52:23.091Z,9.65
2023-03-18T23:54:50.269Z,11.00
2023-03-18T23:57:17.809Z,11.85
2023-03-18T23:59:45.029Z,15.25
